Portland, United Kingdom
Current Conditions -  °F | °C
As of 6:20 PM on Friday 19 Dec 2014 (Local Time) from EGHH Reporting Station
Few Clouds Few Clouds  
Wind Chill: 36°   Ceiling: Unl
Heat Index: 41°   Visibility: 6mi
Dew Point: 36°   Wind: 8mph
Humidity: 81%   Direction: 270°W
Pressure: 30.21"   Gusts: NA
Location:  50.56°N, 2.44°W
Report Text: EGHH 191820Z 27007KT 9999 FEW042 05/02 Q1023
Loading
Personal Weather Stations






























Interactive Weather Map New forecast layout! Learn more

10-Day Weather Forecast

Advertisements
Track Severe Weather on mobile